Time;durP1;ratioP1;P1;durP2;ratioP2;P2;SDS_P1;SDS_P2;PMS_P1;PMS_P2;Temp;Humidity;BMP_temperature;BMP_pressure;BME280_temperature;BME280_humidity;BME280_pressure;Samples;Min_cycle;Max_cycle;Signal;HPM_P1;HPM_P2
2022/08/10 00:01:18;;;;;;;2.73;1.43;;;26.70;35.50;;;27.08;27.09;99256.81;5045386;27;119647;-73
2022/08/10 00:03:45;;;;;;;3.97;1.60;;;26.70;35.60;;;27.08;26.76;99264.47;5047532;27;117595;-72
2022/08/10 00:06:12;;;;;;;1.90;1.73;;;26.60;35.70;;;27.06;27.13;99272.63;5045014;27;123239;-73
2022/08/10 00:08:39;;;;;;;2.57;1.50;;;26.60;35.70;;;27.04;27.09;99263.72;5042315;27;123776;-72
2022/08/10 00:11:06;;;;;;;4.03;1.83;;;26.60;35.80;;;27.01;26.99;99267.38;5036398;27;119104;-72
2022/08/10 00:13:32;;;;;;;2.83;1.50;;;26.60;35.90;;;26.97;27.19;99270.22;5037818;27;118906;-72
2022/08/10 00:15:59;;;;;;;1.60;1.40;;;26.50;35.90;;;26.94;27.29;99265.38;5032610;27;123280;-72
2022/08/10 00:18:26;;;;;;;2.93;1.50;;;26.50;36.10;;;26.92;27.47;99267.00;5032605;27;123139;-72
2022/08/10 00:20:53;;;;;;;2.47;1.67;;;26.50;36.20;;;26.91;27.57;99262.56;5036968;27;119338;-72
2022/08/10 00:23:19;;;;;;;6.40;1.70;;;26.50;36.40;;;26.87;27.56;99265.41;5024693;27;119071;-72
2022/08/10 00:25:47;;;;;;;2.33;1.70;;;26.50;36.50;;;26.85;27.72;99265.00;5030844;27;124336;-73
2022/08/10 00:28:13;;;;;;;1.83;1.30;;;26.50;36.60;;;26.83;27.81;99259.75;5025055;27;123473;-73
2022/08/10 00:30:40;;;;;;;2.53;1.80;;;26.40;36.60;;;26.82;28.08;99268.69;5025210;27;119224;-72
2022/08/10 00:33:06;;;;;;;2.33;1.50;;;26.40;36.80;;;26.79;27.74;99264.63;5037915;27;119083;-73
2022/08/10 00:35:33;;;;;;;3.80;1.70;;;26.40;36.80;;;26.77;27.81;99269.09;5030477;27;123970;-73
2022/08/10 00:37:59;;;;;;;4.87;1.93;;;26.30;36.80;;;26.75;27.80;99265.84;5026644;27;122429;-73
2022/08/10 00:40:26;;;;;;;2.00;1.80;;;26.30;36.90;;;26.73;27.78;99269.09;5027935;27;120295;-73
2022/08/10 00:42:52;;;;;;;3.40;1.80;;;26.30;37.00;;;26.71;27.82;99256.56;5033008;27;120235;-72
2022/08/10 00:45:22;;;;;;;3.53;1.40;;;26.30;37.10;;;26.71;27.83;99267.91;5040953;27;122321;-73
2022/08/10 00:47:49;;;;;;;3.07;1.87;;;26.30;37.20;;;26.67;28.47;99250.91;5037933;27;123855;-73
2022/08/10 00:50:17;;;;;;;1.73;1.60;;;26.30;37.30;;;26.65;28.31;99253.31;5040176;27;118730;-73
2022/08/10 00:52:45;;;;;;;2.33;1.67;;;26.20;37.40;;;26.62;28.12;99257.78;5040140;27;118967;-72
2022/08/10 00:55:11;;;;;;;2.90;1.40;;;26.20;37.50;;;26.60;28.60;99248.09;5040896;27;124089;-73
2022/08/10 00:57:38;;;;;;;2.40;1.40;;;26.20;37.60;;;26.56;28.56;99258.63;5038097;27;123854;-73
2022/08/10 01:00:08;;;;;;;2.43;1.80;;;26.20;37.70;;;26.53;28.71;99253.78;5043171;27;118829;-72
2022/08/10 01:02:35;;;;;;;1.90;1.70;;;26.10;37.70;;;26.49;28.53;99256.59;5037903;27;119505;-73
2022/08/10 01:05:11;;;;;;;2.60;1.60;;;26.10;37.80;;;26.44;28.46;99249.31;5041531;27;124124;-72
2022/08/10 01:08:02;;;;;;;2.50;2.03;;;26.10;38.00;;;26.41;28.52;99250.16;5046000;27;123364;-73
2022/08/10 01:10:45;;;;;;;2.20;2.00;;;26.00;38.00;;;26.37;28.95;99252.16;5042287;27;119318;-73
2022/08/10 01:13:32;;;;;;;2.30;1.50;;;26.00;38.10;;;26.34;28.66;99250.16;5026140;27;118999;-73
2022/08/10 01:16:31;;;;;;;2.70;1.90;;;26.00;38.10;;;26.28;28.60;99257.47;5029135;27;124062;-72
2022/08/10 01:19:19;;;;;;;2.33;1.33;;;25.90;38.10;;;26.22;29.11;99253.41;5032216;27;123973;-72
2022/08/10 01:22:15;;;;;;;2.80;2.00;;;25.90;38.30;;;26.15;29.27;99254.25;5029132;27;119758;-73
2022/08/10 01:25:06;;;;;;;2.43;2.07;;;25.80;38.30;;;26.13;29.29;99255.84;5043145;27;118481;-73
2022/08/10 01:27:51;;;;;;;3.57;2.03;;;25.80;38.40;;;26.09;29.05;99258.72;5022840;27;123859;-73
2022/08/10 01:30:19;;;;;;;1.77;1.40;;;25.70;38.50;;;26.08;29.49;99259.09;5031273;27;123953;-71
2022/08/10 01:33:08;;;;;;;2.20;1.67;;;25.70;38.60;;;26.06;29.54;99258.69;5037219;27;120568;-71
2022/08/10 01:35:44;;;;;;;5.30;1.80;;;25.70;38.70;;;26.04;29.55;99261.16;5016139;27;119087;-72
2022/08/10 01:38:23;;;;;;;6.70;1.50;;;25.70;38.80;;;26.01;29.53;99254.25;5026034;27;124282;-72
2022/08/10 01:41:07;;;;;;;2.23;1.70;;;25.60;38.80;;;25.99;29.26;99251.81;5036549;27;123575;-72
2022/08/10 01:43:40;;;;;;;4.30;1.60;;;25.60;38.80;;;25.94;29.58;99257.91;5041280;27;119101;-72
2022/08/10 01:46:10;;;;;;;1.77;1.50;;;25.60;39.00;;;25.91;29.50;99261.53;5030064;27;118991;-71
2022/08/10 01:48:44;;;;;;;3.03;1.83;;;25.50;39.10;;;25.90;29.49;99262.75;5023540;27;123352;-72
2022/08/10 01:51:28;;;;;;;3.30;1.97;;;25.50;39.20;;;25.87;30.03;99255.09;5014371;27;122766;-72
2022/08/10 01:54:02;;;;;;;3.13;1.70;;;25.50;39.30;;;25.85;29.77;99259.53;5027159;27;119777;-72
2022/08/10 01:56:32;;;;;;;1.80;1.50;;;25.40;39.40;;;25.83;30.13;99262.72;5029694;27;118997;-72
2022/08/10 01:59:06;;;;;;;2.57;1.80;;;25.40;39.50;;;25.82;29.97;99258.28;5026663;27;124135;-72
2022/08/10 02:01:41;;;;;;;3.20;1.40;;;25.40;39.70;;;25.82;30.07;99258.28;5023486;27;124033;-72
2022/08/10 02:04:11;;;;;;;1.87;1.40;;;25.40;39.80;;;25.79;30.12;99261.91;5030381;27;119600;-72
2022/08/10 02:06:50;;;;;;;2.80;1.77;;;25.40;40.00;;;25.78;30.60;99277.28;5028931;27;118691;-73
2022/08/10 02:09:24;;;;;;;1.83;1.60;;;25.40;40.00;;;25.73;30.24;99258.66;5023350;27;124133;-72
2022/08/10 02:11:51;;;;;;;2.77;1.57;;;25.30;40.10;;;25.70;30.53;99267.16;5023885;27;124212;-72
2022/08/10 02:14:19;;;;;;;2.13;1.57;;;25.30;40.80;;;25.68;30.84;99263.94;5036025;27;119478;-72
2022/08/10 02:16:50;;;;;;;2.37;1.70;;;25.30;40.20;;;25.66;30.81;99260.72;5033809;27;117357;-72
2022/08/10 02:19:21;;;;;;;2.60;1.80;;;25.30;40.40;;;25.64;30.69;99263.13;5023951;27;124018;-72
2022/08/10 02:21:50;;;;;;;1.77;1.60;;;25.00;40.30;;;25.60;30.58;99274.44;5038448;27;123470;-73
2022/08/10 02:24:18;;;;;;;1.50;1.27;;;25.20;40.40;;;25.58;30.88;99265.56;5011646;27;120669;-73
2022/08/10 02:26:46;;;;;;;1.77;1.53;;;25.20;40.50;;;25.55;30.92;99260.69;5032460;27;119785;-73
2022/08/10 02:29:15;;;;;;;3.10;1.70;;;25.20;40.70;;;25.52;30.84;99264.31;5026635;27;123174;-73
2022/08/10 02:31:44;;;;;;;2.00;1.80;;;25.10;40.80;;;25.50;31.15;99263.94;5026477;27;123738;-72
2022/08/10 02:34:13;;;;;;;2.33;1.90;;;25.10;40.90;;;25.46;30.94;99266.72;5033649;27;119624;-72
2022/08/10 02:36:53;;;;;;;4.20;1.63;;;25.10;41.00;;;25.43;31.36;99264.72;5017906;27;119071;-73
2022/08/10 02:39:22;;;;;;;3.80;2.20;;;25.00;41.10;;;25.40;31.21;99264.72;5027747;27;124132;-72
2022/08/10 02:42:00;;;;;;;1.83;1.60;;;25.00;41.10;;;25.35;31.45;99269.53;5028403;27;124579;-72
2022/08/10 02:44:29;;;;;;;6.40;2.30;;;25.00;41.20;;;25.29;31.21;99265.50;5027956;27;119917;-72
2022/08/10 02:47:09;;;;;;;4.87;1.50;;;24.90;41.20;;;25.27;31.31;99278.41;5018540;27;119441;-72
2022/08/10 02:49:41;;;;;;;1.73;1.60;;;24.90;41.40;;;25.23;31.59;99269.13;5038640;27;124122;-73
2022/08/10 02:52:20;;;;;;;3.07;1.83;;;24.80;41.40;;;25.19;31.49;99277.59;5027089;27;125089;-72
2022/08/10 02:55:39;;;;;;;3.00;1.70;;;24.80;41.60;;;25.12;31.49;99271.91;5029212;27;119376;-72
2022/08/10 02:58:12;;;;;;;2.97;1.73;;;24.80;41.70;;;25.11;31.78;99265.41;5024516;27;117730;-72
2022/08/10 03:00:52;;;;;;;2.07;1.47;;;24.70;41.60;;;25.09;31.80;99273.50;5037804;27;123206;-72
2022/08/10 03:03:25;;;;;;;2.80;1.50;;;24.70;41.80;;;25.07;31.63;99269.44;5031711;27;122977;-73
2022/08/10 03:06:00;;;;;;;3.00;1.73;;;24.70;41.90;;;24.98;32.03;99272.63;5040050;27;119199;-73
2022/08/10 03:08:35;;;;;;;1.67;1.53;;;24.60;42.00;;;24.94;31.90;99274.66;5040174;27;120202;-72
2022/08/10 03:11:03;;;;;;;3.07;2.00;;;24.50;42.00;;;24.90;32.14;99271.81;5036251;27;124608;-72
2022/08/10 03:13:32;;;;;;;1.93;1.63;;;24.50;42.10;;;24.89;32.11;99277.84;5027155;27;123797;-73
2022/08/10 03:16:01;;;;;;;2.70;1.60;;;24.50;42.20;;;24.85;32.33;99265.72;5025933;27;120320;-72
2022/08/10 03:18:30;;;;;;;1.93;1.50;;;24.50;42.40;;;24.82;32.39;99269.34;5034783;27;119890;-73
2022/08/10 03:20:58;;;;;;;2.50;2.00;;;24.40;42.40;;;24.77;32.39;99267.72;5029979;27;124692;-72
2022/08/10 03:23:27;;;;;;;2.80;1.77;;;24.40;42.50;;;24.72;32.70;99264.44;5026088;27;124199;-72
2022/08/10 03:25:56;;;;;;;3.73;1.90;;;24.30;42.70;;;24.66;32.80;99278.97;5030561;27;119685;-72
2022/08/10 03:28:28;;;;;;;2.60;1.70;;;24.20;42.70;;;24.64;32.87;99272.91;5040413;27;119200;-72
2022/08/10 03:30:58;;;;;;;3.10;1.60;;;24.20;42.90;;;24.64;33.05;99287.03;5027897;27;124500;-72
2022/08/10 03:33:30;;;;;;;2.80;1.67;;;24.20;43.00;;;24.63;33.02;99279.75;5042679;27;123697;-72
2022/08/10 03:35:57;;;;;;;3.07;1.60;;;24.20;43.10;;;24.63;32.79;99282.56;5043582;27;121433;-72
2022/08/10 03:38:23;;;;;;;2.87;1.60;;;24.20;43.10;;;24.62;33.03;99289.44;5035109;27;119186;-72
2022/08/10 03:40:54;;;;;;;2.10;1.70;;;24.20;43.20;;;24.61;33.11;99276.53;5025665;27;124500;-72
2022/08/10 03:43:22;;;;;;;1.73;1.43;;;24.20;43.30;;;24.59;32.99;99280.94;5042632;27;123965;-72
2022/08/10 03:45:54;;;;;;;1.87;1.60;;;24.20;43.40;;;24.57;33.11;99278.50;5028363;27;119449;-72
2022/08/10 03:48:22;;;;;;;3.63;1.77;;;24.20;43.50;;;24.55;33.14;99275.25;5025672;27;119346;-72
2022/08/10 03:50:50;;;;;;;4.07;1.73;;;24.20;43.50;;;24.53;33.30;99286.16;5034121;27;124633;-72
2022/08/10 03:53:17;;;;;;;4.03;1.50;;;24.10;43.50;;;24.52;33.37;99284.53;5034672;27;123042;-72
2022/08/10 03:55:44;;;;;;;2.40;1.60;;;24.10;43.60;;;24.49;33.48;99274.03;5036850;27;119780;-72
2022/08/10 03:58:12;;;;;;;1.63;1.53;;;24.10;43.70;;;24.48;33.30;99283.72;5027218;27;119276;-73
2022/08/10 04:00:40;;;;;;;1.77;1.53;;;24.10;43.80;;;24.46;33.45;99284.09;5030186;27;124075;-72
2022/08/10 04:03:07;;;;;;;4.20;1.90;;;24.10;43.90;;;24.47;33.47;99282.06;5029631;27;124469;-72
2022/08/10 04:05:34;;;;;;;3.30;1.70;;;24.10;43.90;;;24.45;33.59;99285.31;5026675;27;120499;-72
2022/08/10 04:08:02;;;;;;;3.80;1.97;;;24.00;43.90;;;24.44;33.60;99288.53;5027176;27;119825;-72
2022/08/10 04:10:28;;;;;;;2.50;1.50;;;24.00;44.00;;;24.43;33.58;99292.53;5027008;27;123727;-72
2022/08/10 04:12:55;;;;;;;2.00;1.73;;;24.00;44.00;;;24.40;33.41;99287.66;5025021;27;124699;-72
2022/08/10 04:15:24;;;;;;;3.60;2.07;;;24.00;44.10;;;24.38;33.64;99290.06;5029632;27;118761;-72
2022/08/10 04:17:51;;;;;;;2.43;1.80;;;23.90;44.10;;;24.36;33.78;99298.13;5029415;27;119048;-72
2022/08/10 04:20:19;;;;;;;2.57;1.77;;;23.90;44.10;;;24.33;33.81;99305.38;5025318;27;124585;-72
2022/08/10 04:22:56;;;;;;;4.33;1.57;;;23.90;44.20;;;24.31;33.92;99298.50;5040165;27;123582;-72
2022/08/10 04:25:24;;;;;;;1.60;1.50;;;23.90;44.30;;;24.30;33.92;99299.69;5032524;27;119398;-72
2022/08/10 04:27:54;;;;;;;4.23;1.53;;;23.90;44.40;;;24.30;33.82;99296.88;5044329;27;119193;-72
2022/08/10 04:30:23;;;;;;;2.73;1.90;;;23.90;44.50;;;24.33;34.19;99307.38;5031032;27;124495;-72
2022/08/10 04:32:54;;;;;;;4.80;1.90;;;23.90;44.70;;;24.43;33.86;99309.47;5032199;27;123649;-72
2022/08/10 04:35:22;;;;;;;3.13;1.80;;;23.90;44.80;;;24.50;33.59;99303.06;5025007;27;119390;-72
2022/08/10 04:37:50;;;;;;;2.70;1.90;;;23.90;44.80;;;24.50;33.78;99303.88;5026757;27;118714;-72
2022/08/10 04:40:18;;;;;;;1.93;1.77;;;23.90;44.70;;;24.49;33.97;99307.94;5026742;27;124054;-73
2022/08/10 04:42:46;;;;;;;2.50;1.73;;;24.00;44.80;;;24.48;33.72;99313.97;5028292;27;123813;-72
2022/08/10 04:45:14;;;;;;;3.93;2.27;;;24.00;44.80;;;24.49;33.79;99305.09;5024934;27;119299;-73
2022/08/10 04:47:40;;;;;;;2.60;1.60;;;23.90;44.70;;;24.47;33.92;99304.69;5026749;27;119735;-72
2022/08/10 04:50:07;;;;;;;2.70;2.10;;;23.90;44.80;;;24.46;34.21;99303.88;5025762;27;123200;-72
2022/08/10 04:52:34;;;;;;;2.20;1.97;;;23.90;45.00;;;24.47;34.31;99310.31;5033172;27;125641;-72
2022/08/10 04:55:00;;;;;;;2.67;2.00;;;23.90;45.10;;;24.45;34.28;99309.94;5044760;27;120392;-72
2022/08/10 04:57:27;;;;;;;4.17;2.20;;;23.90;45.20;;;24.45;34.39;99312.75;5025748;27;120122;-72
2022/08/10 04:59:53;;;;;;;2.80;2.10;;;23.90;45.20;;;24.43;34.41;99304.63;5043349;27;124424;-72
2022/08/10 05:02:20;;;;;;;5.63;1.90;;;23.90;45.10;;;24.44;34.18;99311.13;5025155;27;123677;-72
2022/08/10 05:04:46;;;;;;;2.50;1.60;;;23.90;45.20;;;24.43;34.10;99301.81;5020535;27;119509;-72
2022/08/10 05:07:15;;;;;;;2.20;1.93;;;23.90;45.00;;;24.42;34.23;99313.50;5025836;27;118891;-72
2022/08/10 05:09:43;;;;;;;3.27;2.03;;;23.90;45.00;;;24.44;34.02;99314.75;5023895;27;124516;-71
2022/08/10 05:12:09;;;;;;;6.67;4.13;;;23.90;45.00;;;24.47;33.99;99307.50;5024556;27;124309;-72
2022/08/10 05:14:36;;;;;;;6.03;3.57;;;23.90;45.00;;;24.50;34.27;99312.34;5033714;27;119913;-72
2022/08/10 05:17:02;;;;;;;6.20;2.73;;;24.00;45.10;;;24.54;34.05;99312.41;5030500;27;118944;-72
2022/08/10 05:19:29;;;;;;;4.07;2.30;;;24.00;45.10;;;24.54;34.14;99315.22;5038810;27;123237;-72
2022/08/10 05:21:55;;;;;;;5.37;1.90;;;24.00;45.10;;;24.55;34.05;99323.28;5043121;27;123603;-73
2022/08/10 05:24:22;;;;;;;9.23;2.10;;;24.00;44.90;;;24.57;33.83;99318.06;5032049;27;119275;-72
2022/08/10 05:26:49;;;;;;;4.97;2.50;;;24.00;44.90;;;24.60;33.69;99314.44;5040709;27;119441;-72
2022/08/10 05:29:15;;;;;;;6.33;2.37;;;24.00;44.90;;;24.62;33.47;99311.25;5023765;27;124236;-73
2022/08/10 05:31:42;;;;;;;4.60;2.40;;;24.10;44.80;;;24.59;33.58;99312.03;5028877;27;123733;-73
2022/08/10 05:34:08;;;;;;;4.93;2.40;;;24.00;44.70;;;24.57;33.68;99320.88;5032509;27;118993;-72
2022/08/10 05:36:36;;;;;;;4.47;2.17;;;24.00;44.70;;;24.57;33.73;99320.09;5047780;27;118795;-73
2022/08/10 05:39:03;;;;;;;4.30;2.20;;;24.00;44.70;;;24.56;33.69;99322.09;5027876;27;124441;-72
2022/08/10 05:41:31;;;;;;;3.83;2.00;;;24.00;44.70;;;24.56;33.48;99319.28;5032833;27;124013;-72
2022/08/10 05:43:58;;;;;;;2.50;1.70;;;24.00;44.70;;;24.59;33.83;99318.50;5026787;27;120265;-73
2022/08/10 05:46:24;;;;;;;2.20;1.60;;;24.00;44.80;;;24.64;33.87;99320.13;5028998;27;119629;-72
2022/08/10 05:48:51;;;;;;;5.20;2.00;;;24.10;44.70;;;24.67;33.36;99322.97;5037483;27;124112;-72
2022/08/10 05:51:18;;;;;;;4.13;1.93;;;24.10;44.70;;;24.71;33.51;99319.34;5044315;27;124325;-72
2022/08/10 05:53:45;;;;;;;2.70;1.70;;;24.10;44.60;;;24.73;33.54;99322.59;5029271;27;118893;-72
2022/08/10 05:56:12;;;;;;;2.20;1.90;;;24.10;44.50;;;24.76;33.44;99325.44;5037917;27;119115;-73
2022/08/10 05:58:39;;;;;;;1.87;1.60;;;24.20;44.50;;;24.79;33.29;99324.63;5044331;27;124436;-72
2022/08/10 06:01:12;;;;;;;2.50;2.30;;;24.20;44.40;;;24.80;33.24;99323.44;5039317;27;123757;-72
2022/08/10 06:03:57;;;;;;;5.40;1.70;;;24.20;44.30;;;24.82;33.21;99321.03;5028013;27;117561;-72
2022/08/10 06:06:26;;;;;;;2.33;1.43;;;24.20;44.30;;;24.85;32.88;99331.56;5045363;27;118767;-72
2022/08/10 06:08:56;;;;;;;5.70;1.80;;;24.20;45.00;;;24.90;33.11;99325.53;5039855;27;124137;-73
2022/08/10 06:11:23;;;;;;;2.37;1.87;;;24.30;44.40;;;24.94;32.81;99325.53;5043937;27;123826;-73
2022/08/10 06:16:40;;;;;;;2.10;1.67;;;24.30;44.20;;;24.98;32.97;99320.69;5038935;27;119882;-72
2022/08/10 06:19:07;;;;;;;6.53;2.10;;;24.40;44.20;;;25.01;32.68;99317.09;5043168;27;124016;-72
2022/08/10 06:21:35;;;;;;;3.17;1.80;;;24.40;44.10;;;25.04;32.90;99327.59;5024501;27;124512;-72
2022/08/10 06:24:02;;;;;;;3.80;1.80;;;24.40;44.00;;;25.09;32.69;99321.56;5046494;27;119231;-71
2022/08/10 06:26:28;;;;;;;2.77;1.63;;;24.50;44.00;;;25.11;32.69;99326.81;5042722;27;118151;-72
2022/08/10 06:29:07;;;;;;;5.90;2.00;;;24.40;43.80;;;25.09;32.50;99326.41;5032868;27;123029;-72
2022/08/10 06:31:42;;;;;;;4.17;2.00;;;24.40;43.80;;;25.10;32.63;99328.84;5036049;27;125039;-72
2022/08/10 06:34:11;;;;;;;3.23;2.07;;;24.90;44.30;;;25.14;32.53;99326.81;5030906;27;120535;-72
2022/08/10 06:36:41;;;;;;;2.77;1.70;;;24.50;44.00;;;25.18;32.40;99320.41;5037462;27;119904;-72
2022/08/10 06:39:08;;;;;;;2.67;2.17;;;24.50;44.00;;;25.16;32.51;99317.97;5033435;27;124229;-74
2022/08/10 06:41:44;;;;;;;5.03;2.27;;;24.50;44.00;;;25.18;32.77;99321.22;5041577;27;123636;-73
2022/08/10 06:44:18;;;;;;;3.67;1.70;;;24.50;44.00;;;25.23;32.44;99312.34;5034772;27;119154;-73
2022/08/10 06:46:49;;;;;;;2.50;1.60;;;24.50;44.00;;;25.32;32.40;99314.81;5031493;27;119044;-72
2022/08/10 06:49:21;;;;;;;4.83;1.90;;;24.60;43.40;;;25.38;32.01;99326.53;5035779;27;123996;-72
2022/08/10 06:51:55;;;;;;;4.90;2.30;;;24.70;43.70;;;25.45;31.82;99307.56;5030169;27;123683;-73
2022/08/10 06:54:25;;;;;;;5.20;2.07;;;24.70;43.60;;;25.50;32.33;99323.34;5031271;27;119593;-73
2022/08/10 06:56:55;;;;;;;4.67;1.90;;;24.80;43.60;;;25.57;32.26;99312.81;5036646;27;118409;-73
2022/08/10 06:59:31;;;;;;;4.23;2.17;;;24.80;43.40;;;25.65;31.57;99318.50;5045391;27;124275;-73
2022/08/10 07:02:04;;;;;;;4.03;2.07;;;24.90;43.40;;;25.74;31.63;99321.78;5029749;27;124127;-73
2022/08/10 07:04:59;;;;;;;5.80;1.87;;;25.00;43.30;;;25.81;31.75;99318.94;5032013;27;119401;-73
2022/08/10 07:07:30;;;;;;;5.40;2.07;;;25.10;43.20;;;25.91;31.40;99323.03;5041483;27;119003;-73
2022/08/10 07:09:59;;;;;;;5.87;1.90;;;25.10;43.00;;;25.99;31.20;99313.31;5038584;27;123372;-73
2022/08/10 07:12:29;;;;;;;3.50;1.80;;;25.20;42.80;;;25.98;31.53;99323.84;5005216;27;96977;-73
2022/08/10 07:14:58;;;;;;;2.90;1.73;;;25.20;42.70;;;26.03;30.82;99318.97;5047319;27;119994;-73
2022/08/10 07:17:27;;;;;;;3.17;2.00;;;25.30;42.70;;;26.08;31.31;99327.88;5036067;27;119371;-72
2022/08/10 07:19:57;;;;;;;2.30;1.67;;;25.30;42.70;;;26.14;31.35;99309.28;5034013;27;124284;-72
2022/08/10 07:22:27;;;;;;;4.33;1.90;;;25.40;42.60;;;26.22;31.07;99310.06;5030449;27;123510;-73
2022/08/10 07:24:56;;;;;;;2.33;1.77;;;25.40;42.50;;;26.26;30.77;99316.53;5022405;27;119196;-73
2022/08/10 07:27:24;;;;;;;2.23;1.73;;;25.50;42.40;;;26.31;31.11;99318.16;5025884;27;119849;-73
2022/08/10 07:29:53;;;;;;;2.50;1.37;;;25.50;42.40;;;26.39;30.91;99309.25;5026044;27;123382;-73
2022/08/10 07:32:22;;;;;;;2.63;1.60;;;25.60;42.20;;;26.45;30.71;99304.78;5029618;27;124070;-73
2022/08/10 07:34:53;;;;;;;3.97;2.00;;;25.70;42.00;;;26.47;30.31;99309.25;5036219;27;119311;-73
2022/08/10 07:37:22;;;;;;;3.77;1.73;;;25.70;41.90;;;26.48;30.15;99311.66;5027512;27;118997;-73
2022/08/10 07:39:51;;;;;;;3.93;1.70;;;25.70;41.90;;;26.49;30.64;99306.78;5026134;27;123256;-73
2022/08/10 07:42:22;;;;;;;4.97;1.87;;;25.70;42.00;;;26.52;30.71;99306.84;5034687;27;124174;-73
2022/08/10 07:44:49;;;;;;;3.53;2.17;;;25.70;41.90;;;26.57;30.25;99305.59;5035771;27;119426;-73
2022/08/10 07:47:26;;;;;;;2.97;1.60;;;25.80;41.80;;;26.60;30.22;99316.13;5012739;27;117843;-73
2022/08/10 07:50:01;;;;;;;1.80;1.60;;;25.90;41.70;;;26.65;30.15;99315.69;5026175;27;123608;-73
2022/08/10 07:52:29;;;;;;;3.13;1.33;;;25.90;41.60;;;26.72;30.25;99310.00;5030941;27;123739;-74
2022/08/10 07:54:56;;;;;;;3.50;1.60;;;26.00;41.40;;;26.77;29.78;99306.75;5044035;27;118627;-74
2022/08/10 07:57:28;;;;;;;3.27;1.80;;;26.00;41.30;;;26.82;30.28;99309.19;5037873;27;118796;-73
2022/08/10 08:00:03;;;;;;;4.00;1.97;;;26.00;41.20;;;26.87;29.94;99305.91;5037621;27;124337;-73
2022/08/10 08:02:36;;;;;;;7.03;1.63;;;26.10;41.10;;;26.93;29.78;99308.34;5041423;27;123167;-73
2022/08/10 08:05:07;;;;;;;3.43;2.00;;;26.20;41.20;;;26.97;29.49;99300.59;5040273;27;119401;-73
2022/08/10 08:07:38;;;;;;;3.80;1.90;;;26.20;40.90;;;27.01;29.59;99301.41;5032097;27;119561;-72
2022/08/10 08:10:07;;;;;;;2.67;1.97;;;26.20;40.70;;;27.05;29.57;99299.34;5039570;27;124369;-72
2022/08/10 08:12:36;;;;;;;2.67;1.70;;;26.30;40.80;;;27.09;29.05;99303.78;5040887;27;123445;-74
2022/08/10 08:15:05;;;;;;;4.43;2.20;;;26.40;40.70;;;27.14;29.23;99301.78;5033311;27;120645;-74
2022/08/10 08:17:33;;;;;;;5.20;1.77;;;26.40;40.60;;;27.18;29.60;99297.69;5026961;27;120305;-73
2022/08/10 08:20:02;;;;;;;2.00;1.37;;;26.50;40.60;;;27.26;29.28;99296.44;5026380;27;124137;-73
2022/08/10 08:22:28;;;;;;;6.90;1.90;;;26.50;40.50;;;27.31;29.24;99298.84;5030250;27;123689;-73
2022/08/10 08:24:57;;;;;;;8.80;2.20;;;26.60;40.10;;;27.31;28.96;99301.69;5043012;27;119245;-74
2022/08/10 08:27:26;;;;;;;5.53;1.70;;;26.60;40.00;;;27.28;29.06;99299.69;5036614;27;118820;-72
2022/08/10 08:29:54;;;;;;;2.10;1.83;;;26.50;40.00;;;27.28;29.08;99298.88;5042232;27;124421;-75
2022/08/10 08:32:24;;;;;;;3.83;1.90;;;26.60;40.20;;;27.33;29.33;99309.00;5032014;27;124213;-75
2022/08/10 08:35:15;;;;;;;2.60;1.60;;;26.60;40.10;;;27.38;29.17;99309.38;5043504;27;120047;-74
2022/08/10 08:37:45;;;;;;;3.53;1.93;;;26.70;40.00;;;27.46;29.12;99290.28;5038401;27;119138;-72
2022/08/10 08:40:25;;;;;;;3.43;1.80;;;26.80;40.10;;;27.53;28.96;99299.53;5042859;27;122990;-74
2022/08/10 08:43:41;;;;;;;2.40;1.60;;;26.80;39.70;;;27.53;28.50;99301.56;5036611;27;123431;-74
2022/08/10 08:47:04;;;;;;;7.87;2.10;;;26.90;39.60;;;27.59;28.83;99299.88;5040191;27;119036;-73
2022/08/10 08:49:34;;;;;;;4.90;1.63;;;26.90;39.40;;;27.66;28.39;99305.53;5040118;27;119062;-74
2022/08/10 08:52:30;;;;;;;3.73;1.77;;;27.00;39.40;;;27.71;28.41;99296.56;5039104;27;124082;-76
2022/08/10 08:55:04;;;;;;;2.03;1.67;;;27.00;39.20;;;27.76;28.40;99290.47;5042057;27;123710;-74
2022/08/10 08:58:17;;;;;;;2.83;1.60;;;27.00;38.90;;;27.75;27.65;99294.53;5043087;27;119196;-75
2022/08/10 09:01:13;;;;;;;2.80;1.70;;;27.10;38.60;;;27.78;27.91;99290.06;5031526;27;118987;-74
2022/08/10 09:04:20;;;;;;;4.50;1.93;;;27.10;38.40;;;27.79;27.80;99293.69;5036372;27;123158;-73
2022/08/10 09:07:44;;;;;;;3.00;1.60;;;27.20;38.30;;;27.79;27.65;99296.53;5034553;27;124444;-86
2022/08/10 09:10:28;;;;;;;7.80;1.87;;;27.20;38.10;;;27.83;27.39;99291.66;5037695;27;120553;-74
2022/08/10 09:13:15;;;;;;;7.20;1.50;;;27.20;37.80;;;27.87;27.37;99281.09;5052181;27;119380;-77
2022/08/10 09:16:25;;;;;;;2.03;1.60;;;27.20;37.70;;;27.94;26.94;99281.00;5032516;27;124182;-74
2022/08/10 09:19:47;;;;;;;4.13;1.60;;;27.30;37.40;;;27.98;27.18;99278.94;5023060;27;123768;-73
2022/08/10 09:22:59;;;;;;;5.13;1.80;;;27.40;37.20;;;28.07;26.35;99279.25;5033935;27;119401;-73
2022/08/10 09:25:36;;;;;;;2.77;1.70;;;27.50;36.40;;;28.13;26.00;99283.28;5038520;27;118841;-73
2022/08/10 09:28:03;;;;;;;1.97;1.83;;;27.50;36.10;;;28.19;24.91;99272.28;5033253;27;124066;-73
2022/08/10 09:31:12;;;;;;;2.20;1.70;;;27.50;34.90;;;28.19;25.01;99270.22;5035803;27;123941;-73
2022/08/10 09:34:11;;;;;;;2.40;1.60;;;27.60;34.40;;;28.28;24.93;99266.09;5038018;27;119501;-73
2022/08/10 09:37:07;;;;;;;6.97;1.50;;;27.70;34.70;;;28.32;25.05;99270.53;5035185;27;119823;-74
2022/08/10 09:40:14;;;;;;;2.70;1.70;;;27.70;34.50;;;28.32;24.73;99264.03;5033824;27;125562;-74
2022/08/10 09:43:19;;;;;;;2.33;1.63;;;27.70;33.50;;;28.36;24.08;99267.63;5025191;27;123133;-73
2022/08/10 09:46:39;;;;;;;7.13;1.60;;;27.80;32.80;;;28.34;24.08;99262.34;5019435;27;119443;-73
2022/08/10 09:49:19;;;;;;;4.13;1.60;;;27.80;32.60;;;28.36;23.74;99267.63;5020833;27;120509;-74
2022/08/10 09:52:05;;;;;;;1.67;1.57;;;27.70;32.30;;;28.41;23.60;99267.19;5038544;27;124228;-74
2022/08/10 09:55:23;;;;;;;5.33;2.10;;;27.90;32.50;;;28.45;23.95;99255.78;5014364;27;125385;-74
2022/08/10 09:58:54;;;;;;;4.03;1.80;;;27.90;32.60;;;28.47;23.63;99256.19;5025237;27;117343;-74
2022/08/10 10:01:30;;;;;;;2.10;1.57;;;28.70;32.60;;;28.50;22.57;99243.97;4994020;27;118061;-75
2022/08/10 10:04:19;;;;;;;3.20;1.50;;;27.90;30.80;;;28.51;22.85;99237.88;5039028;27;122015;-73
2022/08/10 10:07:00;;;;;;;3.37;1.83;;;28.00;31.00;;;28.55;22.61;99247.13;5039781;27;124549;-73
2022/08/10 10:09:56;;;;;;;2.03;1.47;;;28.00;30.40;;;28.59;22.31;99242.22;5008457;27;118728;-74
2022/08/10 10:12:58;;;;;;;2.80;1.63;;;28.00;30.20;;;28.62;22.33;99240.59;5014064;27;119405;-74
2022/08/10 10:16:19;;;;;;;2.37;1.70;;;28.10;30.20;;;28.65;22.58;99251.09;5024612;27;124178;-74
2022/08/10 10:19:09;;;;;;;5.80;1.97;;;28.10;31.30;;;28.71;22.67;99237.22;5026556;27;121914;-74
2022/08/10 10:21:56;;;;;;;1.50;1.33;;;28.20;30.80;;;28.77;22.37;99235.50;5037999;27;119866;-74
2022/08/10 10:24:55;;;;;;;1.90;1.47;;;28.30;30.70;;;28.85;22.01;99237.03;5026367;27;119088;-73
2022/08/10 10:27:52;;;;;;;4.53;1.70;;;28.30;30.00;;;28.90;21.94;99228.03;5030702;27;124579;-74
2022/08/10 10:30:22;;;;;;;4.30;1.43;;;28.40;29.80;;;28.95;21.74;99246.66;5025233;27;123515;-73
2022/08/10 10:33:16;;;;;;;3.63;1.70;;;28.40;29.80;;;28.93;21.83;99227.16;5011922;27;117704;-71
2022/08/10 10:35:55;;;;;;;1.83;1.40;;;28.40;29.40;;;28.96;21.94;99248.28;5034502;27;119288;-71
2022/08/10 10:38:28;;;;;;;6.63;1.67;;;28.40;29.80;;;28.99;22.11;99233.19;5032854;27;124155;-71
2022/08/10 10:41:20;;;;;;;2.47;1.60;;;28.40;30.10;;;28.99;22.31;99219.78;5044675;27;123048;-71
2022/08/10 10:44:20;;;;;;;3.40;1.70;;;28.50;30.60;;;29.02;22.61;99238.06;5042803;27;119185;-72
2022/08/10 10:47:04;;;;;;;6.70;1.83;;;28.50;30.50;;;29.07;22.48;99234.75;5034659;27;119619;-72
2022/08/10 10:50:11;;;;;;;3.47;1.40;;;28.50;30.50;;;29.08;22.69;99227.03;5027480;27;124215;-71